sensor_id;sensor_type;location;lat;lon;timestamp;P1;durP1;ratioP1;P2;durP2;ratioP2
69795;SDS011;57073;45.650;9.612;2024-03-06T00:01:44;6.53;;;3.37;;
69795;SDS011;57073;45.650;9.612;2024-03-06T00:06:44;8.57;;;4.20;;
69795;SDS011;57073;45.650;9.612;2024-03-06T00:11:45;6.90;;;4.30;;
69795;SDS011;57073;45.650;9.612;2024-03-06T00:16:46;7.87;;;4.63;;
69795;SDS011;57073;45.650;9.612;2024-03-06T00:21:47;12.90;;;6.68;;
69795;SDS011;57073;45.650;9.612;2024-03-06T00:26:48;14.90;;;7.97;;
69795;SDS011;57073;45.650;9.612;2024-03-06T00:31:48;13.23;;;8.30;;
69795;SDS011;57073;45.650;9.612;2024-03-06T00:36:49;14.63;;;8.90;;
69795;SDS011;57073;45.650;9.612;2024-03-06T00:41:49;13.93;;;8.93;;
69795;SDS011;57073;45.650;9.612;2024-03-06T00:46:50;15.17;;;9.70;;
69795;SDS011;57073;45.650;9.612;2024-03-06T00:51:50;13.73;;;8.50;;
69795;SDS011;57073;45.650;9.612;2024-03-06T00:56:50;13.00;;;7.33;;
69795;SDS011;57073;45.650;9.612;2024-03-06T01:01:51;11.87;;;7.90;;
69795;SDS011;57073;45.650;9.612;2024-03-06T01:06:51;11.67;;;7.10;;
69795;SDS011;57073;45.650;9.612;2024-03-06T01:11:52;8.77;;;5.80;;
69795;SDS011;57073;45.650;9.612;2024-03-06T01:16:52;7.70;;;5.33;;
69795;SDS011;57073;45.650;9.612;2024-03-06T01:21:52;8.57;;;5.53;;
69795;SDS011;57073;45.650;9.612;2024-03-06T01:26:53;9.17;;;5.20;;
69795;SDS011;57073;45.650;9.612;2024-03-06T01:31:53;8.20;;;5.00;;
69795;SDS011;57073;45.650;9.612;2024-03-06T01:36:53;7.73;;;5.40;;
69795;SDS011;57073;45.650;9.612;2024-03-06T01:41:54;7.40;;;5.70;;
69795;SDS011;57073;45.650;9.612;2024-03-06T01:46:54;8.70;;;5.53;;
69795;SDS011;57073;45.650;9.612;2024-03-06T01:51:55;7.80;;;4.88;;
69795;SDS011;57073;45.650;9.612;2024-03-06T01:56:58;7.33;;;4.77;;
69795;SDS011;57073;45.650;9.612;2024-03-06T02:02:02;10.20;;;4.70;;
69795;SDS011;57073;45.650;9.612;2024-03-06T02:07:03;8.10;;;5.10;;
69795;SDS011;57073;45.650;9.612;2024-03-06T02:12:08;7.03;;;4.70;;
69795;SDS011;57073;45.650;9.612;2024-03-06T02:17:08;6.97;;;4.30;;
69795;SDS011;57073;45.650;9.612;2024-03-06T02:22:09;8.13;;;5.20;;
69795;SDS011;57073;45.650;9.612;2024-03-06T02:27:10;7.65;;;5.40;;
69795;SDS011;57073;45.650;9.612;2024-03-06T02:32:12;11.03;;;5.63;;
69795;SDS011;57073;45.650;9.612;2024-03-06T02:37:13;7.17;;;5.57;;
69795;SDS011;57073;45.650;9.612;2024-03-06T02:42:14;8.40;;;5.73;;
69795;SDS011;57073;45.650;9.612;2024-03-06T02:47:14;10.35;;;5.90;;
69795;SDS011;57073;45.650;9.612;2024-03-06T02:52:15;9.90;;;6.40;;
69795;SDS011;57073;45.650;9.612;2024-03-06T02:57:15;9.20;;;6.40;;
69795;SDS011;57073;45.650;9.612;2024-03-06T03:02:15;8.67;;;6.63;;
69795;SDS011;57073;45.650;9.612;2024-03-06T03:07:16;9.90;;;6.67;;
69795;SDS011;57073;45.650;9.612;2024-03-06T03:12:16;8.53;;;5.40;;
69795;SDS011;57073;45.650;9.612;2024-03-06T03:17:18;5.63;;;4.03;;
69795;SDS011;57073;45.650;9.612;2024-03-06T03:22:19;11.63;;;6.47;;
69795;SDS011;57073;45.650;9.612;2024-03-06T03:27:19;15.50;;;7.77;;
69795;SDS011;57073;45.650;9.612;2024-03-06T03:32:20;12.23;;;6.37;;
69795;SDS011;57073;45.650;9.612;2024-03-06T03:37:20;8.00;;;5.03;;
69795;SDS011;57073;45.650;9.612;2024-03-06T03:42:20;5.63;;;2.87;;
69795;SDS011;57073;45.650;9.612;2024-03-06T03:47:21;7.00;;;1.90;;
69795;SDS011;57073;45.650;9.612;2024-03-06T03:52:22;4.20;;;2.05;;
69795;SDS011;57073;45.650;9.612;2024-03-06T03:57:22;3.47;;;1.33;;
69795;SDS011;57073;45.650;9.612;2024-03-06T04:02:22;2.60;;;0.90;;
69795;SDS011;57073;45.650;9.612;2024-03-06T04:07:23;3.27;;;0.90;;
69795;SDS011;57073;45.650;9.612;2024-03-06T04:12:23;2.07;;;0.43;;
69795;SDS011;57073;45.650;9.612;2024-03-06T04:17:23;1.60;;;0.40;;
69795;SDS011;57073;45.650;9.612;2024-03-06T04:22:25;2.60;;;1.13;;
69795;SDS011;57073;45.650;9.612;2024-03-06T04:27:26;1.85;;;0.30;;
69795;SDS011;57073;45.650;9.612;2024-03-06T04:32:27;2.57;;;0.30;;
69795;SDS011;57073;45.650;9.612;2024-03-06T04:37:27;0.93;;;0.20;;
69795;SDS011;57073;45.650;9.612;2024-03-06T04:42:29;1.35;;;0.30;;
69795;SDS011;57073;45.650;9.612;2024-03-06T04:47:29;0.70;;;0.20;;
69795;SDS011;57073;45.650;9.612;2024-03-06T04:52:30;2.27;;;0.20;;
69795;SDS011;57073;45.650;9.612;2024-03-06T04:57:30;2.40;;;0.20;;
69795;SDS011;57073;45.650;9.612;2024-03-06T05:02:31;1.17;;;0.30;;
69795;SDS011;57073;45.650;9.612;2024-03-06T05:07:34;1.05;;;0.20;;
69795;SDS011;57073;45.650;9.612;2024-03-06T05:12:34;0.87;;;0.27;;
69795;SDS011;57073;45.650;9.612;2024-03-06T05:17:35;0.77;;;0.10;;
69795;SDS011;57073;45.650;9.612;2024-03-06T05:22:35;1.33;;;0.20;;
69795;SDS011;57073;45.650;9.612;2024-03-06T05:27:35;0.97;;;0.10;;
69795;SDS011;57073;45.650;9.612;2024-03-06T05:32:36;0.30;;;0.00;;
69795;SDS011;57073;45.650;9.612;2024-03-06T05:37:37;1.23;;;0.00;;
69795;SDS011;57073;45.650;9.612;2024-03-06T05:42:37;0.20;;;0.10;;
69795;SDS011;57073;45.650;9.612;2024-03-06T05:47:38;0.40;;;0.00;;
69795;SDS011;57073;45.650;9.612;2024-03-06T05:52:39;2.03;;;0.20;;
69795;SDS011;57073;45.650;9.612;2024-03-06T05:57:39;1.00;;;0.10;;
69795;SDS011;57073;45.650;9.612;2024-03-06T06:02:45;0.85;;;0.10;;
69795;SDS011;57073;45.650;9.612;2024-03-06T06:07:46;3.53;;;0.40;;
69795;SDS011;57073;45.650;9.612;2024-03-06T06:12:46;0.90;;;0.27;;
69795;SDS011;57073;45.650;9.612;2024-03-06T06:17:47;1.33;;;0.10;;
69795;SDS011;57073;45.650;9.612;2024-03-06T06:22:47;1.33;;;0.10;;
69795;SDS011;57073;45.650;9.612;2024-03-06T06:27:48;1.40;;;0.10;;
69795;SDS011;57073;45.650;9.612;2024-03-06T06:32:49;1.13;;;0.35;;
69795;SDS011;57073;45.650;9.612;2024-03-06T06:37:49;0.90;;;0.20;;
69795;SDS011;57073;45.650;9.612;2024-03-06T06:42:50;0.77;;;0.40;;
69795;SDS011;57073;45.650;9.612;2024-03-06T06:47:51;1.00;;;0.20;;
69795;SDS011;57073;45.650;9.612;2024-03-06T06:52:51;1.23;;;0.40;;
69795;SDS011;57073;45.650;9.612;2024-03-06T06:57:52;0.93;;;0.30;;
69795;SDS011;57073;45.650;9.612;2024-03-06T07:02:52;1.80;;;0.20;;
69795;SDS011;57073;45.650;9.612;2024-03-06T07:07:53;0.97;;;0.40;;
69795;SDS011;57073;45.650;9.612;2024-03-06T07:12:53;0.93;;;0.20;;
69795;SDS011;57073;45.650;9.612;2024-03-06T07:17:53;1.10;;;0.40;;
69795;SDS011;57073;45.650;9.612;2024-03-06T07:22:54;3.43;;;0.70;;
69795;SDS011;57073;45.650;9.612;2024-03-06T07:27:54;3.47;;;0.73;;
69795;SDS011;57073;45.650;9.612;2024-03-06T07:32:55;1.60;;;0.60;;
69795;SDS011;57073;45.650;9.612;2024-03-06T07:37:57;2.50;;;0.65;;
69795;SDS011;57073;45.650;9.612;2024-03-06T07:42:57;2.13;;;0.80;;
69795;SDS011;57073;45.650;9.612;2024-03-06T07:47:59;1.30;;;0.80;;
69795;SDS011;57073;45.650;9.612;2024-03-06T07:53:00;1.73;;;0.63;;
69795;SDS011;57073;45.650;9.612;2024-03-06T07:58:00;1.33;;;0.50;;
69795;SDS011;57073;45.650;9.612;2024-03-06T08:03:00;1.30;;;0.70;;
69795;SDS011;57073;45.650;9.612;2024-03-06T08:08:01;2.77;;;0.80;;
69795;SDS011;57073;45.650;9.612;2024-03-06T08:13:03;2.33;;;0.90;;
69795;SDS011;57073;45.650;9.612;2024-03-06T08:18:04;1.13;;;0.70;;
69795;SDS011;57073;45.650;9.612;2024-03-06T08:23:04;2.03;;;0.90;;
69795;SDS011;57073;45.650;9.612;2024-03-06T08:28:05;1.90;;;1.00;;
69795;SDS011;57073;45.650;9.612;2024-03-06T08:33:05;1.47;;;0.73;;
69795;SDS011;57073;45.650;9.612;2024-03-06T08:38:06;4.50;;;1.10;;
69795;SDS011;57073;45.650;9.612;2024-03-06T08:43:06;1.80;;;1.00;;
69795;SDS011;57073;45.650;9.612;2024-03-06T08:48:09;3.67;;;1.50;;
69795;SDS011;57073;45.650;9.612;2024-03-06T08:53:09;3.73;;;1.80;;
69795;SDS011;57073;45.650;9.612;2024-03-06T08:58:09;6.17;;;2.00;;
69795;SDS011;57073;45.650;9.612;2024-03-06T09:03:10;2.90;;;2.00;;
69795;SDS011;57073;45.650;9.612;2024-03-06T09:08:10;3.97;;;1.93;;
69795;SDS011;57073;45.650;9.612;2024-03-06T09:13:11;4.30;;;1.90;;
69795;SDS011;57073;45.650;9.612;2024-03-06T09:18:12;4.20;;;2.77;;
69795;SDS011;57073;45.650;9.612;2024-03-06T09:23:12;4.17;;;2.73;;
69795;SDS011;57073;45.650;9.612;2024-03-06T09:28:13;6.93;;;3.38;;
69795;SDS011;57073;45.650;9.612;2024-03-06T09:33:14;5.67;;;3.10;;
69795;SDS011;57073;45.650;9.612;2024-03-06T09:38:14;5.97;;;3.60;;
69795;SDS011;57073;45.650;9.612;2024-03-06T09:43:14;7.87;;;4.00;;
69795;SDS011;57073;45.650;9.612;2024-03-06T09:48:15;6.60;;;4.23;;
69795;SDS011;57073;45.650;9.612;2024-03-06T09:53:20;6.77;;;3.90;;
69795;SDS011;57073;45.650;9.612;2024-03-06T09:58:22;7.82;;;4.10;;
69795;SDS011;57073;45.650;9.612;2024-03-06T10:03:23;7.43;;;4.17;;
69795;SDS011;57073;45.650;9.612;2024-03-06T10:08:24;7.07;;;4.30;;
69795;SDS011;57073;45.650;9.612;2024-03-06T10:13:26;11.40;;;5.10;;
69795;SDS011;57073;45.650;9.612;2024-03-06T10:18:28;9.82;;;5.05;;
69795;SDS011;57073;45.650;9.612;2024-03-06T10:23:29;9.43;;;5.33;;
69795;SDS011;57073;45.650;9.612;2024-03-06T10:28:30;8.73;;;4.47;;
69795;SDS011;57073;45.650;9.612;2024-03-06T10:33:32;6.13;;;3.55;;
69795;SDS011;57073;45.650;9.612;2024-03-06T10:38:35;7.50;;;4.18;;
69795;SDS011;57073;45.650;9.612;2024-03-06T10:43:37;9.07;;;5.00;;
69795;SDS011;57073;45.650;9.612;2024-03-06T10:48:39;11.52;;;5.43;;
69795;SDS011;57073;45.650;9.612;2024-03-06T10:53:43;10.00;;;5.00;;
69795;SDS011;57073;45.650;9.612;2024-03-06T10:58:44;6.05;;;3.55;;
69795;SDS011;57073;45.650;9.612;2024-03-06T11:03:47;9.88;;;4.25;;
69795;SDS011;57073;45.650;9.612;2024-03-06T11:08:48;11.63;;;4.97;;
69795;SDS011;57073;45.650;9.612;2024-03-06T11:13:48;11.03;;;5.90;;
69795;SDS011;57073;45.650;9.612;2024-03-06T11:18:49;9.67;;;5.10;;
69795;SDS011;57073;45.650;9.612;2024-03-06T11:29:18;13.10;;;6.70;;
69795;SDS011;57073;45.650;9.612;2024-03-06T11:34:19;10.70;;;5.87;;
69795;SDS011;57073;45.650;9.612;2024-03-06T11:39:22;11.43;;;5.45;;
69795;SDS011;57073;45.650;9.612;2024-03-06T11:44:23;7.53;;;5.00;;
69795;SDS011;57073;45.650;9.612;2024-03-06T11:49:24;9.90;;;4.95;;
69795;SDS011;57073;45.650;9.612;2024-03-06T11:54:26;6.80;;;3.80;;
69795;SDS011;57073;45.650;9.612;2024-03-06T11:59:30;6.17;;;3.17;;
69795;SDS011;57073;45.650;9.612;2024-03-06T12:04:32;6.93;;;3.28;;
69795;SDS011;57073;45.650;9.612;2024-03-06T12:09:35;9.10;;;4.20;;
69795;SDS011;57073;45.650;9.612;2024-03-06T12:14:36;7.25;;;3.30;;
69795;SDS011;57073;45.650;9.612;2024-03-06T12:19:38;8.10;;;3.20;;
69795;SDS011;57073;45.650;9.612;2024-03-06T12:24:42;4.50;;;3.00;;
69795;SDS011;57073;45.650;9.612;2024-03-06T12:29:42;4.28;;;2.30;;
69795;SDS011;57073;45.650;9.612;2024-03-06T12:34:43;5.63;;;2.80;;
69795;SDS011;57073;45.650;9.612;2024-03-06T12:39:44;6.40;;;3.50;;
69795;SDS011;57073;45.650;9.612;2024-03-06T12:44:44;5.40;;;3.60;;
69795;SDS011;57073;45.650;9.612;2024-03-06T12:49:45;5.43;;;3.10;;
69795;SDS011;57073;45.650;9.612;2024-03-06T12:54:45;5.00;;;2.23;;
69795;SDS011;57073;45.650;9.612;2024-03-06T12:59:45;3.97;;;1.50;;
69795;SDS011;57073;45.650;9.612;2024-03-06T13:04:46;4.17;;;1.60;;
69795;SDS011;57073;45.650;9.612;2024-03-06T13:09:46;4.67;;;2.07;;
69795;SDS011;57073;45.650;9.612;2024-03-06T13:14:46;5.40;;;2.50;;
69795;SDS011;57073;45.650;9.612;2024-03-06T13:19:47;5.30;;;2.63;;
69795;SDS011;57073;45.650;9.612;2024-03-06T13:24:47;4.70;;;2.43;;
69795;SDS011;57073;45.650;9.612;2024-03-06T13:29:48;4.53;;;2.30;;
69795;SDS011;57073;45.650;9.612;2024-03-06T13:34:48;3.87;;;2.10;;
69795;SDS011;57073;45.650;9.612;2024-03-06T13:39:49;5.80;;;2.90;;
69795;SDS011;57073;45.650;9.612;2024-03-06T13:44:50;4.45;;;2.60;;
69795;SDS011;57073;45.650;9.612;2024-03-06T13:49:51;3.57;;;2.50;;
69795;SDS011;57073;45.650;9.612;2024-03-06T13:54:51;3.43;;;1.90;;
69795;SDS011;57073;45.650;9.612;2024-03-06T13:59:52;2.60;;;1.37;;
69795;SDS011;57073;45.650;9.612;2024-03-06T14:04:52;4.00;;;2.03;;
69795;SDS011;57073;45.650;9.612;2024-03-06T14:09:52;4.13;;;2.47;;
69795;SDS011;57073;45.650;9.612;2024-03-06T14:14:53;7.70;;;2.87;;
69795;SDS011;57073;45.650;9.612;2024-03-06T14:19:53;4.18;;;2.20;;
69795;SDS011;57073;45.650;9.612;2024-03-06T14:24:54;6.20;;;2.00;;
69795;SDS011;57073;45.650;9.612;2024-03-06T14:29:55;3.77;;;2.07;;
69795;SDS011;57073;45.650;9.612;2024-03-06T14:34:55;8.40;;;3.30;;
69795;SDS011;57073;45.650;9.612;2024-03-06T14:39:56;8.10;;;2.83;;
69795;SDS011;57073;45.650;9.612;2024-03-06T14:44:56;5.17;;;1.83;;
69795;SDS011;57073;45.650;9.612;2024-03-06T14:49:57;2.73;;;1.00;;
69795;SDS011;57073;45.650;9.612;2024-03-06T14:54:57;2.22;;;0.80;;
69795;SDS011;57073;45.650;9.612;2024-03-06T14:59:58;1.00;;;0.63;;
69795;SDS011;57073;45.650;9.612;2024-03-06T15:04:58;2.63;;;0.73;;
69795;SDS011;57073;45.650;9.612;2024-03-06T15:09:58;1.80;;;0.63;;
69795;SDS011;57073;45.650;9.612;2024-03-06T15:14:59;2.87;;;0.73;;
69795;SDS011;57073;45.650;9.612;2024-03-06T15:20:00;3.00;;;0.67;;
69795;SDS011;57073;45.650;9.612;2024-03-06T15:25:01;3.43;;;0.70;;
69795;SDS011;57073;45.650;9.612;2024-03-06T15:30:01;3.30;;;1.03;;
69795;SDS011;57073;45.650;9.612;2024-03-06T15:35:03;3.28;;;0.70;;
69795;SDS011;57073;45.650;9.612;2024-03-06T15:40:04;3.72;;;1.33;;
69795;SDS011;57073;45.650;9.612;2024-03-06T15:45:06;3.53;;;1.00;;
69795;SDS011;57073;45.650;9.612;2024-03-06T15:50:07;5.87;;;1.00;;
69795;SDS011;57073;45.650;9.612;2024-03-06T15:55:09;1.87;;;0.80;;
69795;SDS011;57073;45.650;9.612;2024-03-06T16:00:10;3.30;;;1.10;;
69795;SDS011;57073;45.650;9.612;2024-03-06T16:05:14;4.40;;;1.20;;
69795;SDS011;57073;45.650;9.612;2024-03-06T16:10:15;3.17;;;0.83;;
69795;SDS011;57073;45.650;9.612;2024-03-06T16:15:15;4.60;;;1.27;;
69795;SDS011;57073;45.650;9.612;2024-03-06T16:20:16;3.63;;;1.30;;
69795;SDS011;57073;45.650;9.612;2024-03-06T16:25:16;2.23;;;0.80;;
69795;SDS011;57073;45.650;9.612;2024-03-06T16:30:17;2.50;;;1.25;;
69795;SDS011;57073;45.650;9.612;2024-03-06T16:35:17;2.23;;;1.17;;
69795;SDS011;57073;45.650;9.612;2024-03-06T16:40:18;4.90;;;1.70;;
69795;SDS011;57073;45.650;9.612;2024-03-06T16:45:18;3.97;;;1.30;;
69795;SDS011;57073;45.650;9.612;2024-03-06T16:50:18;4.13;;;1.70;;
69795;SDS011;57073;45.650;9.612;2024-03-06T16:55:19;4.13;;;1.73;;
69795;SDS011;57073;45.650;9.612;2024-03-06T17:00:20;3.53;;;2.15;;
69795;SDS011;57073;45.650;9.612;2024-03-06T17:05:22;4.13;;;2.40;;
69795;SDS011;57073;45.650;9.612;2024-03-06T17:10:22;8.87;;;4.90;;
69795;SDS011;57073;45.650;9.612;2024-03-06T17:15:23;6.53;;;2.60;;
69795;SDS011;57073;45.650;9.612;2024-03-06T17:20:24;14.50;;;9.63;;
69795;SDS011;57073;45.650;9.612;2024-03-06T17:25:24;4.65;;;2.90;;
69795;SDS011;57073;45.650;9.612;2024-03-06T17:30:24;8.87;;;4.17;;
69795;SDS011;57073;45.650;9.612;2024-03-06T17:35:27;4.63;;;2.60;;
69795;SDS011;57073;45.650;9.612;2024-03-06T17:40:27;15.20;;;8.03;;
69795;SDS011;57073;45.650;9.612;2024-03-06T17:45:27;5.30;;;3.40;;
69795;SDS011;57073;45.650;9.612;2024-03-06T17:50:29;7.78;;;2.80;;
69795;SDS011;57073;45.650;9.612;2024-03-06T17:55:32;8.00;;;3.10;;
69795;SDS011;57073;45.650;9.612;2024-03-06T18:00:33;8.77;;;3.13;;
69795;SDS011;57073;45.650;9.612;2024-03-06T18:05:34;8.30;;;2.90;;
69795;SDS011;57073;45.650;9.612;2024-03-06T18:10:34;7.83;;;3.07;;
69795;SDS011;57073;45.650;9.612;2024-03-06T18:15:34;9.97;;;3.33;;
69795;SDS011;57073;45.650;9.612;2024-03-06T18:20:35;7.85;;;3.35;;
69795;SDS011;57073;45.650;9.612;2024-03-06T18:25:35;7.97;;;3.70;;
69795;SDS011;57073;45.650;9.612;2024-03-06T18:30:35;11.10;;;3.90;;
69795;SDS011;57073;45.650;9.612;2024-03-06T18:35:36;6.70;;;3.93;;
69795;SDS011;57073;45.650;9.612;2024-03-06T18:40:36;9.67;;;4.13;;
69795;SDS011;57073;45.650;9.612;2024-03-06T18:45:37;9.40;;;4.50;;
69795;SDS011;57073;45.650;9.612;2024-03-06T18:50:37;8.47;;;4.50;;
69795;SDS011;57073;45.650;9.612;2024-03-06T18:55:38;10.17;;;5.40;;
69795;SDS011;57073;45.650;9.612;2024-03-06T19:00:38;14.03;;;3.77;;
69795;SDS011;57073;45.650;9.612;2024-03-06T19:05:38;7.60;;;3.83;;
69795;SDS011;57073;45.650;9.612;2024-03-06T19:10:39;5.45;;;3.05;;
69795;SDS011;57073;45.650;9.612;2024-03-06T19:15:39;5.77;;;2.90;;
69795;SDS011;57073;45.650;9.612;2024-03-06T19:20:39;5.63;;;3.17;;
69795;SDS011;57073;45.650;9.612;2024-03-06T19:25:40;6.03;;;3.20;;
69795;SDS011;57073;45.650;9.612;2024-03-06T19:30:40;4.73;;;2.77;;
69795;SDS011;57073;45.650;9.612;2024-03-06T19:35:40;6.90;;;3.00;;
69795;SDS011;57073;45.650;9.612;2024-03-06T19:40:41;5.40;;;2.80;;
69795;SDS011;57073;45.650;9.612;2024-03-06T19:45:42;4.45;;;2.25;;
69795;SDS011;57073;45.650;9.612;2024-03-06T19:50:42;4.50;;;2.50;;
69795;SDS011;57073;45.650;9.612;2024-03-06T19:55:45;4.53;;;2.10;;
69795;SDS011;57073;45.650;9.612;2024-03-06T20:00:48;3.30;;;1.95;;
69795;SDS011;57073;45.650;9.612;2024-03-06T20:05:48;2.77;;;1.83;;
69795;SDS011;57073;45.650;9.612;2024-03-06T20:10:48;4.18;;;2.00;;
69795;SDS011;57073;45.650;9.612;2024-03-06T20:15:49;8.20;;;2.80;;
69795;SDS011;57073;45.650;9.612;2024-03-06T20:20:49;6.63;;;2.80;;
69795;SDS011;57073;45.650;9.612;2024-03-06T20:25:49;4.70;;;2.50;;
69795;SDS011;57073;45.650;9.612;2024-03-06T20:30:50;4.33;;;2.30;;
69795;SDS011;57073;45.650;9.612;2024-03-06T20:35:52;4.13;;;2.50;;
69795;SDS011;57073;45.650;9.612;2024-03-06T20:40:53;4.80;;;2.83;;
69795;SDS011;57073;45.650;9.612;2024-03-06T20:45:53;5.20;;;3.15;;
69795;SDS011;57073;45.650;9.612;2024-03-06T20:50:54;6.43;;;3.10;;
69795;SDS011;57073;45.650;9.612;2024-03-06T20:55:55;7.23;;;3.20;;
69795;SDS011;57073;45.650;9.612;2024-03-06T21:00:55;5.23;;;3.00;;
69795;SDS011;57073;45.650;9.612;2024-03-06T21:05:55;5.82;;;3.50;;
69795;SDS011;57073;45.650;9.612;2024-03-06T21:10:56;6.35;;;3.72;;
69795;SDS011;57073;45.650;9.612;2024-03-06T21:15:58;12.37;;;5.73;;
69795;SDS011;57073;45.650;9.612;2024-03-06T21:20:59;9.50;;;5.60;;
69795;SDS011;57073;45.650;9.612;2024-03-06T21:26:00;10.20;;;4.70;;
69795;SDS011;57073;45.650;9.612;2024-03-06T21:31:00;7.40;;;4.20;;
69795;SDS011;57073;45.650;9.612;2024-03-06T21:36:00;8.33;;;4.10;;
69795;SDS011;57073;45.650;9.612;2024-03-06T21:41:01;13.57;;;5.27;;
69795;SDS011;57073;45.650;9.612;2024-03-06T21:46:01;11.57;;;5.50;;
69795;SDS011;57073;45.650;9.612;2024-03-06T21:51:02;11.90;;;6.10;;
69795;SDS011;57073;45.650;9.612;2024-03-06T21:56:03;13.38;;;5.72;;
69795;SDS011;57073;45.650;9.612;2024-03-06T22:01:04;7.73;;;4.70;;
69795;SDS011;57073;45.650;9.612;2024-03-06T22:06:04;6.65;;;4.25;;
69795;SDS011;57073;45.650;9.612;2024-03-06T22:11:05;10.57;;;4.93;;
69795;SDS011;57073;45.650;9.612;2024-03-06T22:16:08;8.03;;;4.90;;
69795;SDS011;57073;45.650;9.612;2024-03-06T22:21:08;8.27;;;4.80;;
69795;SDS011;57073;45.650;9.612;2024-03-06T22:26:09;8.88;;;5.05;;
69795;SDS011;57073;45.650;9.612;2024-03-06T22:31:09;8.80;;;4.80;;
69795;SDS011;57073;45.650;9.612;2024-03-06T22:36:16;7.70;;;5.37;;
69795;SDS011;57073;45.650;9.612;2024-03-06T22:41:20;9.37;;;5.00;;
69795;SDS011;57073;45.650;9.612;2024-03-06T22:46:21;7.50;;;5.00;;
69795;SDS011;57073;45.650;9.612;2024-03-06T22:51:22;9.30;;;5.17;;
69795;SDS011;57073;45.650;9.612;2024-03-06T22:56:23;7.57;;;4.68;;
69795;SDS011;57073;45.650;9.612;2024-03-06T23:01:24;8.87;;;5.67;;
69795;SDS011;57073;45.650;9.612;2024-03-06T23:06:24;12.20;;;8.18;;
69795;SDS011;57073;45.650;9.612;2024-03-06T23:11:24;8.07;;;5.38;;
69795;SDS011;57073;45.650;9.612;2024-03-06T23:16:25;7.30;;;4.45;;
69795;SDS011;57073;45.650;9.612;2024-03-06T23:21:25;5.70;;;4.47;;
69795;SDS011;57073;45.650;9.612;2024-03-06T23:26:25;6.77;;;3.63;;
69795;SDS011;57073;45.650;9.612;2024-03-06T23:31:26;7.33;;;3.73;;
69795;SDS011;57073;45.650;9.612;2024-03-06T23:36:27;4.88;;;3.53;;
69795;SDS011;57073;45.650;9.612;2024-03-06T23:41:27;7.47;;;4.20;;
69795;SDS011;57073;45.650;9.612;2024-03-06T23:46:28;9.38;;;4.15;;
69795;SDS011;57073;45.650;9.612;2024-03-06T23:51:29;8.90;;;4.00;;
69795;SDS011;57073;45.650;9.612;2024-03-06T23:56:29;7.43;;;4.33;;
